sensor_id;sensor_type;location;lat;lon;timestamp;temperature;humidity
3925;DHT22;1977;52.274;10.518;2023-06-10T00:00:49;20.50;81.80
3925;DHT22;1977;52.274;10.518;2023-06-10T00:03:16;20.50;81.90
3925;DHT22;1977;52.274;10.518;2023-06-10T00:05:44;20.50;82.50
3925;DHT22;1977;52.274;10.518;2023-06-10T00:08:12;20.40;82.80
3925;DHT22;1977;52.274;10.518;2023-06-10T00:10:41;20.40;83.60
3925;DHT22;1977;52.274;10.518;2023-06-10T00:13:08;20.40;84.30
3925;DHT22;1977;52.274;10.518;2023-06-10T00:15:35;20.50;84.80
3925;DHT22;1977;52.274;10.518;2023-06-10T00:18:02;20.30;85.80
3925;DHT22;1977;52.274;10.518;2023-06-10T00:20:29;20.30;86.90
3925;DHT22;1977;52.274;10.518;2023-06-10T00:22:58;20.40;87.30
3925;DHT22;1977;52.274;10.518;2023-06-10T00:25:26;20.20;88.00
3925;DHT22;1977;52.274;10.518;2023-06-10T00:27:53;20.20;88.30
3925;DHT22;1977;52.274;10.518;2023-06-10T00:30:20;20.10;88.90
3925;DHT22;1977;52.274;10.518;2023-06-10T00:32:47;20.30;90.20
3925;DHT22;1977;52.274;10.518;2023-06-10T00:35:14;20.30;90.20
3925;DHT22;1977;52.274;10.518;2023-06-10T00:37:41;20.20;90.40
3925;DHT22;1977;52.274;10.518;2023-06-10T00:40:10;20.20;90.80
3925;DHT22;1977;52.274;10.518;2023-06-10T00:42:37;20.00;91.00
3925;DHT22;1977;52.274;10.518;2023-06-10T00:45:05;19.90;91.50
3925;DHT22;1977;52.274;10.518;2023-06-10T00:47:32;19.90;92.10
3925;DHT22;1977;52.274;10.518;2023-06-10T00:50:01;19.90;92.20
3925;DHT22;1977;52.274;10.518;2023-06-10T00:52:29;19.90;92.50
3925;DHT22;1977;52.274;10.518;2023-06-10T00:54:56;19.70;92.80
3925;DHT22;1977;52.274;10.518;2023-06-10T00:57:25;19.70;93.30
3925;DHT22;1977;52.274;10.518;2023-06-10T00:59:53;19.70;93.50
3925;DHT22;1977;52.274;10.518;2023-06-10T01:02:20;19.60;94.00
3925;DHT22;1977;52.274;10.518;2023-06-10T01:04:47;19.60;94.40
3925;DHT22;1977;52.274;10.518;2023-06-10T01:07:20;19.60;94.50
3925;DHT22;1977;52.274;10.518;2023-06-10T01:09:54;19.60;94.80
3925;DHT22;1977;52.274;10.518;2023-06-10T01:12:29;19.50;95.00
3925;DHT22;1977;52.274;10.518;2023-06-10T01:14:59;19.40;95.50
3925;DHT22;1977;52.274;10.518;2023-06-10T01:17:26;19.30;95.90
3925;DHT22;1977;52.274;10.518;2023-06-10T01:19:54;19.60;96.50
3925;DHT22;1977;52.274;10.518;2023-06-10T01:22:23;19.30;96.50
3925;DHT22;1977;52.274;10.518;2023-06-10T01:24:52;19.30;96.90
3925;DHT22;1977;52.274;10.518;2023-06-10T01:27:21;19.20;97.70
3925;DHT22;1977;52.274;10.518;2023-06-10T01:29:53;19.30;97.40
3925;DHT22;1977;52.274;10.518;2023-06-10T01:32:32;19.30;97.80
3925;DHT22;1977;52.274;10.518;2023-06-10T01:35:01;19.20;98.10
3925;DHT22;1977;52.274;10.518;2023-06-10T01:37:31;19.10;98.70
3925;DHT22;1977;52.274;10.518;2023-06-10T01:39:59;19.10;99.10
3925;DHT22;1977;52.274;10.518;2023-06-10T01:42:27;19.00;99.30
3925;DHT22;1977;52.274;10.518;2023-06-10T01:44:54;18.80;99.90
3925;DHT22;1977;52.274;10.518;2023-06-10T01:47:21;18.80;99.90
3925;DHT22;1977;52.274;10.518;2023-06-10T01:49:48;18.70;99.90
3925;DHT22;1977;52.274;10.518;2023-06-10T01:52:15;18.70;99.90
3925;DHT22;1977;52.274;10.518;2023-06-10T01:54:43;18.70;99.90
3925;DHT22;1977;52.274;10.518;2023-06-10T01:57:10;18.70;99.90
3925;DHT22;1977;52.274;10.518;2023-06-10T01:59:37;18.90;99.90
3925;DHT22;1977;52.274;10.518;2023-06-10T02:02:04;18.80;99.90
3925;DHT22;1977;52.274;10.518;2023-06-10T02:04:31;18.70;99.90
3925;DHT22;1977;52.274;10.518;2023-06-10T02:06:58;19.00;99.90
3925;DHT22;1977;52.274;10.518;2023-06-10T02:09:29;18.80;99.90
3925;DHT22;1977;52.274;10.518;2023-06-10T02:11:57;18.80;99.90
3925;DHT22;1977;52.274;10.518;2023-06-10T02:14:24;18.80;99.90
3925;DHT22;1977;52.274;10.518;2023-06-10T02:16:51;18.80;99.90
3925;DHT22;1977;52.274;10.518;2023-06-10T02:19:21;18.70;99.90
3925;DHT22;1977;52.274;10.518;2023-06-10T02:21:48;18.60;99.90
3925;DHT22;1977;52.274;10.518;2023-06-10T02:24:16;18.60;99.90
3925;DHT22;1977;52.274;10.518;2023-06-10T02:26:43;18.50;99.90
3925;DHT22;1977;52.274;10.518;2023-06-10T02:29:11;18.50;99.90
3925;DHT22;1977;52.274;10.518;2023-06-10T02:31:38;18.50;99.90
3925;DHT22;1977;52.274;10.518;2023-06-10T02:34:06;18.60;99.90
3925;DHT22;1977;52.274;10.518;2023-06-10T02:36:33;18.50;99.90
3925;DHT22;1977;52.274;10.518;2023-06-10T02:39:01;18.40;99.90
3925;DHT22;1977;52.274;10.518;2023-06-10T02:41:28;18.30;99.90
3925;DHT22;1977;52.274;10.518;2023-06-10T02:43:55;18.40;99.90
3925;DHT22;1977;52.274;10.518;2023-06-10T02:46:23;18.30;99.90
3925;DHT22;1977;52.274;10.518;2023-06-10T02:48:50;18.30;99.90
3925;DHT22;1977;52.274;10.518;2023-06-10T02:51:18;18.20;99.90
3925;DHT22;1977;52.274;10.518;2023-06-10T02:53:46;18.10;99.90
3925;DHT22;1977;52.274;10.518;2023-06-10T02:56:15;18.00;99.90
3925;DHT22;1977;52.274;10.518;2023-06-10T02:58:42;18.00;99.90
3925;DHT22;1977;52.274;10.518;2023-06-10T03:01:09;18.00;99.90
3925;DHT22;1977;52.274;10.518;2023-06-10T03:03:37;18.00;99.90
3925;DHT22;1977;52.274;10.518;2023-06-10T03:06:07;17.90;99.90
3925;DHT22;1977;52.274;10.518;2023-06-10T03:08:35;17.80;99.90
3925;DHT22;1977;52.274;10.518;2023-06-10T03:11:02;18.00;99.90
3925;DHT22;1977;52.274;10.518;2023-06-10T03:13:29;17.90;99.90
3925;DHT22;1977;52.274;10.518;2023-06-10T03:15:56;17.70;99.90
3925;DHT22;1977;52.274;10.518;2023-06-10T03:18:27;17.70;99.90
3925;DHT22;1977;52.274;10.518;2023-06-10T03:20:55;17.60;99.90
3925;DHT22;1977;52.274;10.518;2023-06-10T03:23:23;17.60;99.90
3925;DHT22;1977;52.274;10.518;2023-06-10T03:25:49;17.70;99.90
3925;DHT22;1977;52.274;10.518;2023-06-10T03:28:16;17.70;99.90
3925;DHT22;1977;52.274;10.518;2023-06-10T03:30:43;17.70;99.90
3925;DHT22;1977;52.274;10.518;2023-06-10T03:33:10;17.70;99.90
3925;DHT22;1977;52.274;10.518;2023-06-10T03:35:37;17.70;99.90
3925;DHT22;1977;52.274;10.518;2023-06-10T03:38:05;17.80;99.90
3925;DHT22;1977;52.274;10.518;2023-06-10T03:40:32;17.70;99.90
3925;DHT22;1977;52.274;10.518;2023-06-10T03:43:00;17.60;99.90
3925;DHT22;1977;52.274;10.518;2023-06-10T03:45:27;17.60;99.90
3925;DHT22;1977;52.274;10.518;2023-06-10T03:47:54;17.50;99.90
3925;DHT22;1977;52.274;10.518;2023-06-10T03:50:22;17.50;99.90
3925;DHT22;1977;52.274;10.518;2023-06-10T03:52:50;17.60;99.90
3925;DHT22;1977;52.274;10.518;2023-06-10T03:55:18;17.70;99.90
3925;DHT22;1977;52.274;10.518;2023-06-10T03:57:47;17.70;99.90
3925;DHT22;1977;52.274;10.518;2023-06-10T04:00:14;17.60;99.90
3925;DHT22;1977;52.274;10.518;2023-06-10T04:02:43;17.70;99.90
3925;DHT22;1977;52.274;10.518;2023-06-10T04:05:14;17.70;99.90
3925;DHT22;1977;52.274;10.518;2023-06-10T04:07:41;17.70;99.90
3925;DHT22;1977;52.274;10.518;2023-06-10T04:10:10;17.60;99.90
3925;DHT22;1977;52.274;10.518;2023-06-10T04:12:39;17.60;99.90
3925;DHT22;1977;52.274;10.518;2023-06-10T04:15:07;17.90;99.90
3925;DHT22;1977;52.274;10.518;2023-06-10T04:17:34;17.60;99.90
3925;DHT22;1977;52.274;10.518;2023-06-10T04:20:01;17.50;99.90
3925;DHT22;1977;52.274;10.518;2023-06-10T04:22:28;17.50;99.90
3925;DHT22;1977;52.274;10.518;2023-06-10T04:24:55;17.50;99.90
3925;DHT22;1977;52.274;10.518;2023-06-10T04:27:22;17.50;99.90
3925;DHT22;1977;52.274;10.518;2023-06-10T04:29:50;17.40;99.90
3925;DHT22;1977;52.274;10.518;2023-06-10T04:32:18;17.40;99.90
3925;DHT22;1977;52.274;10.518;2023-06-10T04:34:44;17.40;99.90
3925;DHT22;1977;52.274;10.518;2023-06-10T04:37:11;17.40;99.90
3925;DHT22;1977;52.274;10.518;2023-06-10T04:39:38;17.50;99.90
3925;DHT22;1977;52.274;10.518;2023-06-10T04:42:05;17.50;99.90
3925;DHT22;1977;52.274;10.518;2023-06-10T04:44:32;17.60;99.90
3925;DHT22;1977;52.274;10.518;2023-06-10T04:47:00;17.80;99.90
3925;DHT22;1977;52.274;10.518;2023-06-10T04:49:27;17.80;99.90
3925;DHT22;1977;52.274;10.518;2023-06-10T04:51:55;17.90;99.90
3925;DHT22;1977;52.274;10.518;2023-06-10T04:54:22;17.90;99.90
3925;DHT22;1977;52.274;10.518;2023-06-10T04:56:49;17.90;99.90
3925;DHT22;1977;52.274;10.518;2023-06-10T04:59:15;17.80;99.90
3925;DHT22;1977;52.274;10.518;2023-06-10T05:01:42;17.90;99.90
3925;DHT22;1977;52.274;10.518;2023-06-10T05:04:10;17.70;99.90
3925;DHT22;1977;52.274;10.518;2023-06-10T05:06:37;18.00;99.90
3925;DHT22;1977;52.274;10.518;2023-06-10T05:09:05;17.80;99.90
3925;DHT22;1977;52.274;10.518;2023-06-10T05:11:32;18.20;99.90
3925;DHT22;1977;52.274;10.518;2023-06-10T05:13:59;18.10;99.90
3925;DHT22;1977;52.274;10.518;2023-06-10T05:16:25;18.00;99.90
3925;DHT22;1977;52.274;10.518;2023-06-10T05:18:53;18.20;99.90
3925;DHT22;1977;52.274;10.518;2023-06-10T05:21:21;18.00;99.90
3925;DHT22;1977;52.274;10.518;2023-06-10T05:23:48;18.10;99.90
3925;DHT22;1977;52.274;10.518;2023-06-10T05:26:15;18.20;99.90
3925;DHT22;1977;52.274;10.518;2023-06-10T05:28:43;17.90;99.90
3925;DHT22;1977;52.274;10.518;2023-06-10T05:31:10;18.00;99.90
3925;DHT22;1977;52.274;10.518;2023-06-10T05:33:36;18.00;99.90
3925;DHT22;1977;52.274;10.518;2023-06-10T05:36:04;18.00;99.90
3925;DHT22;1977;52.274;10.518;2023-06-10T05:38:32;18.00;99.90
3925;DHT22;1977;52.274;10.518;2023-06-10T05:40:59;18.20;99.90
3925;DHT22;1977;52.274;10.518;2023-06-10T05:43:25;18.30;99.90
3925;DHT22;1977;52.274;10.518;2023-06-10T05:45:52;18.20;99.90
3925;DHT22;1977;52.274;10.518;2023-06-10T05:48:19;18.50;99.90
3925;DHT22;1977;52.274;10.518;2023-06-10T05:50:46;18.30;99.90
3925;DHT22;1977;52.274;10.518;2023-06-10T05:53:14;18.40;99.90
3925;DHT22;1977;52.274;10.518;2023-06-10T05:55:43;18.70;99.90
3925;DHT22;1977;52.274;10.518;2023-06-10T05:58:10;18.50;99.90
3925;DHT22;1977;52.274;10.518;2023-06-10T06:00:38;18.60;99.90
3925;DHT22;1977;52.274;10.518;2023-06-10T06:03:06;18.60;99.90
3925;DHT22;1977;52.274;10.518;2023-06-10T06:05:32;18.80;99.90
3925;DHT22;1977;52.274;10.518;2023-06-10T06:08:00;19.00;99.90
3925;DHT22;1977;52.274;10.518;2023-06-10T06:10:28;18.90;99.90
3925;DHT22;1977;52.274;10.518;2023-06-10T06:12:56;19.00;99.90
3925;DHT22;1977;52.274;10.518;2023-06-10T06:15:23;19.30;99.90
3925;DHT22;1977;52.274;10.518;2023-06-10T06:17:50;19.30;99.90
3925;DHT22;1977;52.274;10.518;2023-06-10T06:20:18;18.80;99.90
3925;DHT22;1977;52.274;10.518;2023-06-10T06:22:44;19.20;99.90
3925;DHT22;1977;52.274;10.518;2023-06-10T06:25:11;19.30;99.90
3925;DHT22;1977;52.274;10.518;2023-06-10T06:27:38;19.30;99.90
3925;DHT22;1977;52.274;10.518;2023-06-10T06:30:07;19.50;99.90
3925;DHT22;1977;52.274;10.518;2023-06-10T06:32:34;19.50;99.90
3925;DHT22;1977;52.274;10.518;2023-06-10T06:35:01;19.60;99.90
3925;DHT22;1977;52.274;10.518;2023-06-10T06:37:28;19.50;99.90
3925;DHT22;1977;52.274;10.518;2023-06-10T06:39:54;19.50;99.90
3925;DHT22;1977;52.274;10.518;2023-06-10T06:42:21;19.50;99.90
3925;DHT22;1977;52.274;10.518;2023-06-10T06:44:48;19.60;99.90
3925;DHT22;1977;52.274;10.518;2023-06-10T06:47:16;19.70;99.90
3925;DHT22;1977;52.274;10.518;2023-06-10T06:49:45;19.70;99.90
3925;DHT22;1977;52.274;10.518;2023-06-10T06:52:12;19.80;99.90
3925;DHT22;1977;52.274;10.518;2023-06-10T06:54:39;19.80;99.90
3925;DHT22;1977;52.274;10.518;2023-06-10T06:57:06;19.80;99.90
3925;DHT22;1977;52.274;10.518;2023-06-10T06:59:33;20.00;99.90
3925;DHT22;1977;52.274;10.518;2023-06-10T07:02:00;20.10;99.90
3925;DHT22;1977;52.274;10.518;2023-06-10T07:04:28;20.20;99.90
3925;DHT22;1977;52.274;10.518;2023-06-10T07:06:55;20.30;99.90
3925;DHT22;1977;52.274;10.518;2023-06-10T07:09:22;20.30;99.90
3925;DHT22;1977;52.274;10.518;2023-06-10T07:11:49;20.60;99.90
3925;DHT22;1977;52.274;10.518;2023-06-10T07:14:15;20.70;99.90
3925;DHT22;1977;52.274;10.518;2023-06-10T07:16:42;20.70;99.90
3925;DHT22;1977;52.274;10.518;2023-06-10T07:19:10;20.80;99.90
3925;DHT22;1977;52.274;10.518;2023-06-10T07:21:38;20.90;99.90
3925;DHT22;1977;52.274;10.518;2023-06-10T07:24:06;21.20;99.90
3925;DHT22;1977;52.274;10.518;2023-06-10T07:26:33;21.40;99.90
3925;DHT22;1977;52.274;10.518;2023-06-10T07:28:59;21.70;99.90
3925;DHT22;1977;52.274;10.518;2023-06-10T07:31:26;21.80;99.90
3925;DHT22;1977;52.274;10.518;2023-06-10T07:33:53;21.90;99.90
3925;DHT22;1977;52.274;10.518;2023-06-10T07:36:19;22.00;99.90
3925;DHT22;1977;52.274;10.518;2023-06-10T07:38:48;22.20;99.90
3925;DHT22;1977;52.274;10.518;2023-06-10T07:41:15;22.50;99.90
3925;DHT22;1977;52.274;10.518;2023-06-10T07:43:43;22.70;99.90
3925;DHT22;1977;52.274;10.518;2023-06-10T07:46:10;22.90;99.90
3925;DHT22;1977;52.274;10.518;2023-06-10T07:48:37;23.10;99.90
3925;DHT22;1977;52.274;10.518;2023-06-10T07:51:03;23.80;99.90
3925;DHT22;1977;52.274;10.518;2023-06-10T07:53:30;24.80;98.70
3925;DHT22;1977;52.274;10.518;2023-06-10T07:55:58;26.30;96.10
3925;DHT22;1977;52.274;10.518;2023-06-10T07:58:25;27.60;93.80
3925;DHT22;1977;52.274;10.518;2023-06-10T08:00:52;29.10;91.70
3925;DHT22;1977;52.274;10.518;2023-06-10T08:03:20;30.40;87.50
3925;DHT22;1977;52.274;10.518;2023-06-10T08:05:47;31.40;82.00
3925;DHT22;1977;52.274;10.518;2023-06-10T08:08:14;32.30;77.20
3925;DHT22;1977;52.274;10.518;2023-06-10T08:10:40;33.00;73.60
3925;DHT22;1977;52.274;10.518;2023-06-10T08:13:09;33.80;69.50
3925;DHT22;1977;52.274;10.518;2023-06-10T08:15:36;34.70;65.40
3925;DHT22;1977;52.274;10.518;2023-06-10T08:18:03;35.50;61.80
3925;DHT22;1977;52.274;10.518;2023-06-10T08:20:29;36.20;58.40
3925;DHT22;1977;52.274;10.518;2023-06-10T08:22:56;36.80;56.10
3925;DHT22;1977;52.274;10.518;2023-06-10T08:25:23;37.30;54.40
3925;DHT22;1977;52.274;10.518;2023-06-10T08:27:50;37.80;52.50
3925;DHT22;1977;52.274;10.518;2023-06-10T08:30:19;38.40;50.80
3925;DHT22;1977;52.274;10.518;2023-06-10T08:32:45;38.80;49.10
3925;DHT22;1977;52.274;10.518;2023-06-10T08:35:12;39.30;47.30
3925;DHT22;1977;52.274;10.518;2023-06-10T08:37:39;39.60;46.10
3925;DHT22;1977;52.274;10.518;2023-06-10T08:40:07;39.90;44.50
3925;DHT22;1977;52.274;10.518;2023-06-10T08:42:39;40.20;43.40
3925;DHT22;1977;52.274;10.518;2023-06-10T08:45:07;40.60;42.30
3925;DHT22;1977;52.274;10.518;2023-06-10T08:47:39;40.90;41.60
3925;DHT22;1977;52.274;10.518;2023-06-10T08:50:08;41.20;40.60
3925;DHT22;1977;52.274;10.518;2023-06-10T08:52:36;41.50;39.50
3925;DHT22;1977;52.274;10.518;2023-06-10T08:55:05;41.80;38.80
3925;DHT22;1977;52.274;10.518;2023-06-10T08:57:36;41.80;38.40
3925;DHT22;1977;52.274;10.518;2023-06-10T09:00:05;41.90;37.60
3925;DHT22;1977;52.274;10.518;2023-06-10T09:02:33;42.30;37.20
3925;DHT22;1977;52.274;10.518;2023-06-10T09:05:03;42.60;35.90
3925;DHT22;1977;52.274;10.518;2023-06-10T09:07:30;42.70;35.50
3925;DHT22;1977;52.274;10.518;2023-06-10T09:10:01;42.80;35.60
3925;DHT22;1977;52.274;10.518;2023-06-10T09:12:29;42.90;34.80
3925;DHT22;1977;52.274;10.518;2023-06-10T09:14:56;43.10;34.70
3925;DHT22;1977;52.274;10.518;2023-06-10T09:17:23;43.20;33.90
3925;DHT22;1977;52.274;10.518;2023-06-10T09:19:50;43.10;33.80
3925;DHT22;1977;52.274;10.518;2023-06-10T09:22:21;43.30;33.60
3925;DHT22;1977;52.274;10.518;2023-06-10T09:24:48;43.70;33.60
3925;DHT22;1977;52.274;10.518;2023-06-10T09:27:15;44.00;33.30
3925;DHT22;1977;52.274;10.518;2023-06-10T09:29:51;44.30;32.40
3925;DHT22;1977;52.274;10.518;2023-06-10T09:32:19;44.40;32.00
3925;DHT22;1977;52.274;10.518;2023-06-10T09:34:47;44.30;31.70
3925;DHT22;1977;52.274;10.518;2023-06-10T09:37:21;44.50;32.20
3925;DHT22;1977;52.274;10.518;2023-06-10T09:40:02;44.70;31.50
3925;DHT22;1977;52.274;10.518;2023-06-10T09:42:32;44.90;31.40
3925;DHT22;1977;52.274;10.518;2023-06-10T09:45:00;44.90;31.40
3925;DHT22;1977;52.274;10.518;2023-06-10T09:47:27;45.00;30.70
3925;DHT22;1977;52.274;10.518;2023-06-10T09:49:55;45.00;30.00
3925;DHT22;1977;52.274;10.518;2023-06-10T09:52:24;45.10;29.90
3925;DHT22;1977;52.274;10.518;2023-06-10T09:54:51;45.20;29.80
3925;DHT22;1977;52.274;10.518;2023-06-10T09:57:19;45.20;29.70
3925;DHT22;1977;52.274;10.518;2023-06-10T09:59:46;45.20;29.20
3925;DHT22;1977;52.274;10.518;2023-06-10T10:02:16;45.00;29.90
3925;DHT22;1977;52.274;10.518;2023-06-10T10:04:48;44.60;29.90
3925;DHT22;1977;52.274;10.518;2023-06-10T10:07:14;43.50;29.70
3925;DHT22;1977;52.274;10.518;2023-06-10T10:09:43;42.40;30.40
3925;DHT22;1977;52.274;10.518;2023-06-10T10:12:10;41.20;31.40
3925;DHT22;1977;52.274;10.518;2023-06-10T10:14:38;40.30;32.50
3925;DHT22;1977;52.274;10.518;2023-06-10T10:17:09;39.10;34.00
3925;DHT22;1977;52.274;10.518;2023-06-10T10:19:43;38.10;35.40
3925;DHT22;1977;52.274;10.518;2023-06-10T10:22:18;37.30;36.40
3925;DHT22;1977;52.274;10.518;2023-06-10T10:24:50;36.10;36.90
3925;DHT22;1977;52.274;10.518;2023-06-10T10:27:21;34.80;38.90
3925;DHT22;1977;52.274;10.518;2023-06-10T10:29:51;34.00;39.90
3925;DHT22;1977;52.274;10.518;2023-06-10T10:32:18;33.30;41.50
3925;DHT22;1977;52.274;10.518;2023-06-10T10:34:57;32.70;41.90
3925;DHT22;1977;52.274;10.518;2023-06-10T10:37:30;32.00;42.50
3925;DHT22;1977;52.274;10.518;2023-06-10T10:39:59;31.60;43.40
3925;DHT22;1977;52.274;10.518;2023-06-10T10:42:27;31.30;44.30
3925;DHT22;1977;52.274;10.518;2023-06-10T10:44:54;30.90;45.10
3925;DHT22;1977;52.274;10.518;2023-06-10T10:47:22;30.90;45.60
3925;DHT22;1977;52.274;10.518;2023-06-10T10:49:52;30.40;45.60
3925;DHT22;1977;52.274;10.518;2023-06-10T10:52:19;30.20;46.80
3925;DHT22;1977;52.274;10.518;2023-06-10T10:54:46;30.00;47.00
3925;DHT22;1977;52.274;10.518;2023-06-10T10:57:16;29.90;47.10
3925;DHT22;1977;52.274;10.518;2023-06-10T10:59:52;29.70;47.80
3925;DHT22;1977;52.274;10.518;2023-06-10T11:02:33;29.40;49.00
3925;DHT22;1977;52.274;10.518;2023-06-10T11:05:01;29.20;49.50
3925;DHT22;1977;52.274;10.518;2023-06-10T11:07:30;29.10;50.10
3925;DHT22;1977;52.274;10.518;2023-06-10T11:09:58;28.90;50.40
3925;DHT22;1977;52.274;10.518;2023-06-10T11:12:49;28.80;50.90
3925;DHT22;1977;52.274;10.518;2023-06-10T11:15:18;28.60;51.00
3925;DHT22;1977;52.274;10.518;2023-06-10T11:18:15;28.50;51.50
3925;DHT22;1977;52.274;10.518;2023-06-10T11:20:58;28.30;51.90
3925;DHT22;1977;52.274;10.518;2023-06-10T11:23:39;28.20;52.00
3925;DHT22;1977;52.274;10.518;2023-06-10T11:26:13;27.90;53.10
3925;DHT22;1977;52.274;10.518;2023-06-10T11:28:42;27.50;53.40
3925;DHT22;1977;52.274;10.518;2023-06-10T11:31:29;27.40;53.70
3925;DHT22;1977;52.274;10.518;2023-06-10T11:33:57;27.30;55.00
3925;DHT22;1977;52.274;10.518;2023-06-10T11:36:25;27.30;55.40
3925;DHT22;1977;52.274;10.518;2023-06-10T11:38:55;27.30;56.10
3925;DHT22;1977;52.274;10.518;2023-06-10T11:41:22;27.10;56.00
3925;DHT22;1977;52.274;10.518;2023-06-10T11:43:52;27.20;56.30
3925;DHT22;1977;52.274;10.518;2023-06-10T11:46:19;27.40;56.40
3925;DHT22;1977;52.274;10.518;2023-06-10T11:48:49;27.40;56.20
3925;DHT22;1977;52.274;10.518;2023-06-10T11:51:16;27.40;56.40
3925;DHT22;1977;52.274;10.518;2023-06-10T11:53:44;27.40;56.50
3925;DHT22;1977;52.274;10.518;2023-06-10T11:56:11;27.30;57.70
3925;DHT22;1977;52.274;10.518;2023-06-10T11:58:40;27.50;57.80
3925;DHT22;1977;52.274;10.518;2023-06-10T12:01:11;27.20;57.50
3925;DHT22;1977;52.274;10.518;2023-06-10T12:03:45;27.30;57.60
3925;DHT22;1977;52.274;10.518;2023-06-10T12:06:12;27.40;57.80
3925;DHT22;1977;52.274;10.518;2023-06-10T12:08:41;27.40;57.10
3925;DHT22;1977;52.274;10.518;2023-06-10T12:11:09;27.30;58.10
3925;DHT22;1977;52.274;10.518;2023-06-10T12:13:36;27.40;57.70
3925;DHT22;1977;52.274;10.518;2023-06-10T12:16:06;27.40;57.60
3925;DHT22;1977;52.274;10.518;2023-06-10T12:18:35;27.40;58.30
3925;DHT22;1977;52.274;10.518;2023-06-10T12:21:02;27.50;57.60
3925;DHT22;1977;52.274;10.518;2023-06-10T12:23:29;27.60;57.40
3925;DHT22;1977;52.274;10.518;2023-06-10T12:25:56;27.40;58.10
3925;DHT22;1977;52.274;10.518;2023-06-10T12:28:25;27.30;59.00
3925;DHT22;1977;52.274;10.518;2023-06-10T12:31:06;27.40;58.80
3925;DHT22;1977;52.274;10.518;2023-06-10T12:33:32;27.50;58.90
3925;DHT22;1977;52.274;10.518;2023-06-10T12:36:01;27.50;58.20
3925;DHT22;1977;52.274;10.518;2023-06-10T12:38:27;27.40;58.30
3925;DHT22;1977;52.274;10.518;2023-06-10T12:40:57;27.20;58.70
3925;DHT22;1977;52.274;10.518;2023-06-10T12:43:27;27.20;59.00
3925;DHT22;1977;52.274;10.518;2023-06-10T12:45:54;27.30;58.80
3925;DHT22;1977;52.274;10.518;2023-06-10T12:48:23;27.20;59.20
3925;DHT22;1977;52.274;10.518;2023-06-10T12:50:52;27.30;59.10
3925;DHT22;1977;52.274;10.518;2023-06-10T12:53:21;27.10;59.00
3925;DHT22;1977;52.274;10.518;2023-06-10T12:55:49;27.10;59.40
3925;DHT22;1977;52.274;10.518;2023-06-10T12:58:15;27.00;59.20
3925;DHT22;1977;52.274;10.518;2023-06-10T13:00:42;27.10;59.60
3925;DHT22;1977;52.274;10.518;2023-06-10T13:03:09;27.00;59.20
3925;DHT22;1977;52.274;10.518;2023-06-10T13:05:37;27.10;59.70
3925;DHT22;1977;52.274;10.518;2023-06-10T13:08:04;27.00;60.00
3925;DHT22;1977;52.274;10.518;2023-06-10T13:10:33;27.00;60.00
3925;DHT22;1977;52.274;10.518;2023-06-10T13:13:00;27.00;60.00
3925;DHT22;1977;52.274;10.518;2023-06-10T13:15:27;27.00;60.20
3925;DHT22;1977;52.274;10.518;2023-06-10T13:17:53;26.90;60.30
3925;DHT22;1977;52.274;10.518;2023-06-10T13:20:21;26.90;59.90
3925;DHT22;1977;52.274;10.518;2023-06-10T13:22:48;27.00;60.70
3925;DHT22;1977;52.274;10.518;2023-06-10T13:25:15;27.10;59.90
3925;DHT22;1977;52.274;10.518;2023-06-10T13:27:43;27.00;59.60
3925;DHT22;1977;52.274;10.518;2023-06-10T13:30:11;26.70;60.20
3925;DHT22;1977;52.274;10.518;2023-06-10T13:32:38;27.00;61.20
3925;DHT22;1977;52.274;10.518;2023-06-10T13:35:06;27.00;60.40
3925;DHT22;1977;52.274;10.518;2023-06-10T13:37:33;27.20;59.20
3925;DHT22;1977;52.274;10.518;2023-06-10T13:40:00;27.20;59.00
3925;DHT22;1977;52.274;10.518;2023-06-10T13:42:28;27.30;57.70
3925;DHT22;1977;52.274;10.518;2023-06-10T13:44:56;27.20;58.40
3925;DHT22;1977;52.274;10.518;2023-06-10T13:47:23;27.10;58.90
3925;DHT22;1977;52.274;10.518;2023-06-10T13:49:49;27.00;59.40
3925;DHT22;1977;52.274;10.518;2023-06-10T13:52:16;27.00;59.30
3925;DHT22;1977;52.274;10.518;2023-06-10T13:54:43;27.00;59.60
3925;DHT22;1977;52.274;10.518;2023-06-10T13:57:10;27.10;59.40
3925;DHT22;1977;52.274;10.518;2023-06-10T13:59:37;27.10;60.20
3925;DHT22;1977;52.274;10.518;2023-06-10T14:02:05;27.10;59.60
3925;DHT22;1977;52.274;10.518;2023-06-10T14:04:32;27.20;59.10
3925;DHT22;1977;52.274;10.518;2023-06-10T14:06:59;27.30;59.60
3925;DHT22;1977;52.274;10.518;2023-06-10T14:09:26;27.30;60.00
3925;DHT22;1977;52.274;10.518;2023-06-10T14:11:52;27.40;60.10
3925;DHT22;1977;52.274;10.518;2023-06-10T14:14:19;27.40;60.20
3925;DHT22;1977;52.274;10.518;2023-06-10T14:16:47;27.50;59.60
3925;DHT22;1977;52.274;10.518;2023-06-10T14:19:16;27.50;59.60
3925;DHT22;1977;52.274;10.518;2023-06-10T14:21:42;27.40;59.30
3925;DHT22;1977;52.274;10.518;2023-06-10T14:24:09;27.20;59.30
3925;DHT22;1977;52.274;10.518;2023-06-10T14:26:36;27.20;59.00
3925;DHT22;1977;52.274;10.518;2023-06-10T14:29:02;27.20;59.70
3925;DHT22;1977;52.274;10.518;2023-06-10T14:31:29;27.20;60.00
3925;DHT22;1977;52.274;10.518;2023-06-10T14:33:56;27.30;58.90
3925;DHT22;1977;52.274;10.518;2023-06-10T14:36:24;27.40;58.70
3925;DHT22;1977;52.274;10.518;2023-06-10T14:38:51;27.40;58.80
3925;DHT22;1977;52.274;10.518;2023-06-10T14:41:19;27.30;58.80
3925;DHT22;1977;52.274;10.518;2023-06-10T14:43:47;27.20;59.50
3925;DHT22;1977;52.274;10.518;2023-06-10T14:46:14;27.30;59.90
3925;DHT22;1977;52.274;10.518;2023-06-10T14:48:41;27.30;59.90
3925;DHT22;1977;52.274;10.518;2023-06-10T14:51:08;27.10;59.30
3925;DHT22;1977;52.274;10.518;2023-06-10T14:53:36;27.20;58.80
3925;DHT22;1977;52.274;10.518;2023-06-10T14:56:03;27.10;57.50
3925;DHT22;1977;52.274;10.518;2023-06-10T14:58:30;27.10;57.40
3925;DHT22;1977;52.274;10.518;2023-06-10T15:00:57;27.00;57.60
3925;DHT22;1977;52.274;10.518;2023-06-10T15:03:23;27.10;58.00
3925;DHT22;1977;52.274;10.518;2023-06-10T15:05:50;27.10;59.00
3925;DHT22;1977;52.274;10.518;2023-06-10T15:08:17;27.10;58.60
3925;DHT22;1977;52.274;10.518;2023-06-10T15:10:45;27.10;58.50
3925;DHT22;1977;52.274;10.518;2023-06-10T15:13:13;27.20;59.10
3925;DHT22;1977;52.274;10.518;2023-06-10T15:15:40;27.20;58.70
3925;DHT22;1977;52.274;10.518;2023-06-10T15:18:07;27.20;57.00
3925;DHT22;1977;52.274;10.518;2023-06-10T15:20:33;27.10;56.40
3925;DHT22;1977;52.274;10.518;2023-06-10T15:23:00;27.10;56.50
3925;DHT22;1977;52.274;10.518;2023-06-10T15:25:27;27.30;56.90
3925;DHT22;1977;52.274;10.518;2023-06-10T15:27:55;27.30;56.90
3925;DHT22;1977;52.274;10.518;2023-06-10T15:30:22;27.30;57.30
3925;DHT22;1977;52.274;10.518;2023-06-10T15:32:48;27.40;57.20
3925;DHT22;1977;52.274;10.518;2023-06-10T15:35:15;27.40;57.50
3925;DHT22;1977;52.274;10.518;2023-06-10T15:37:42;27.30;57.80
3925;DHT22;1977;52.274;10.518;2023-06-10T15:40:10;27.30;57.50
3925;DHT22;1977;52.274;10.518;2023-06-10T15:42:36;27.60;56.30
3925;DHT22;1977;52.274;10.518;2023-06-10T15:45:06;27.70;56.10
3925;DHT22;1977;52.274;10.518;2023-06-10T15:47:32;27.70;55.80
3925;DHT22;1977;52.274;10.518;2023-06-10T15:49:59;27.70;53.80